Time;durP1;ratioP1;P1;durP2;ratioP2;P2;SDS_P1;SDS_P2;PMS_P1;PMS_P2;Temp;Humidity;BMP_temperature;BMP_pressure;BME280_temperature;BME280_humidity;BME280_pressure;Samples;Min_cycle;Max_cycle;Signal;HPM_P1;HPM_P2
2022/12/13 00:00:09;;;;;;;12.67;11.97;;;19.80;45.30;;;;;;5013549;28;20537;-56
2022/12/13 00:02:36;;;;;;;12.17;11.47;;;19.80;45.40;;;;;;5013709;28;20474;-57
2022/12/13 00:05:02;;;;;;;13.83;13.03;;;19.80;45.40;;;;;;5013778;28;20568;-54
2022/12/13 00:07:29;;;;;;;12.23;11.53;;;19.80;45.40;;;;;;5012433;28;20989;-57
2022/12/13 00:09:57;;;;;;;12.90;12.20;;;19.80;45.90;;;;;;5013475;28;20438;-59
2022/12/13 00:12:24;;;;;;;13.13;12.43;;;19.80;45.40;;;;;;5013784;28;20454;-59
2022/12/13 00:14:51;;;;;;;12.47;11.73;;;19.80;45.40;;;;;;5013938;28;20446;-60
2022/12/13 00:17:18;;;;;;;13.47;12.40;;;19.80;45.40;;;;;;5032996;28;20481;-60
2022/12/13 00:19:46;;;;;;;12.50;11.70;;;19.70;45.30;;;;;;5032972;28;20468;-60
2022/12/13 00:22:13;;;;;;;12.10;11.43;;;19.70;45.30;;;;;;5033028;28;20528;-60
2022/12/13 00:24:40;;;;;;;13.07;12.27;;;19.70;45.30;;;;;;5020477;28;20446;-60
2022/12/13 00:27:08;;;;;;;12.40;11.60;;;19.70;45.30;;;;;;5013423;28;20484;-58
2022/12/13 00:29:35;;;;;;;12.67;11.73;;;19.70;45.30;;;;;;5012966;28;21032;-59
2022/12/13 00:32:02;;;;;;;12.67;12.07;;;19.70;45.40;;;;;;5013184;28;20456;-57
2022/12/13 00:34:29;;;;;;;12.53;11.80;;;19.60;45.30;;;;;;5023570;28;20442;-57
2022/12/13 00:36:57;;;;;;;11.97;11.27;;;19.60;45.30;;;;;;5032567;28;21006;-57
2022/12/13 00:39:25;;;;;;;13.20;12.40;;;19.60;45.30;;;;;;5032554;28;20967;-59
2022/12/13 00:41:51;;;;;;;12.90;12.30;;;19.60;45.30;;;;;;5032580;28;20447;-58
2022/12/13 00:44:20;;;;;;;13.03;12.33;;;19.60;45.30;;;;;;5023318;28;20472;-56
2022/12/13 00:46:47;;;;;;;13.33;12.57;;;19.60;45.40;;;;;;5012702;28;20821;-59
2022/12/13 00:49:14;;;;;;;13.10;12.20;;;19.60;45.30;;;;;;5012664;28;20441;-56
2022/12/13 00:51:40;;;;;;;13.03;12.33;;;19.60;45.40;;;;;;5013857;28;20450;-59
2022/12/13 00:54:07;;;;;;;13.00;12.30;;;19.50;45.30;;;;;;5032383;28;20441;-58
2022/12/13 00:56:34;;;;;;;12.67;11.97;;;19.50;45.40;;;;;;5032189;28;20576;-58
2022/12/13 00:59:01;;;;;;;13.40;12.70;;;19.50;45.40;;;;;;5032529;28;20441;-55
2022/12/13 01:01:31;;;;;;;13.07;12.03;;;19.50;45.40;;;;;;5032242;28;20536;-56
2022/12/13 01:04:00;;;;;;;13.00;12.30;;;19.50;45.50;;;;;;5012776;28;20882;-56
2022/12/13 01:06:29;;;;;;;12.27;11.63;;;19.50;45.40;;;;;;5012525;28;20828;-58
2022/12/13 01:08:56;;;;;;;13.70;12.80;;;19.50;45.40;;;;;;5012487;28;20482;-55
2022/12/13 01:11:23;;;;;;;12.40;11.80;;;19.50;45.40;;;;;;5012559;28;20456;-59
2022/12/13 01:13:50;;;;;;;12.17;11.50;;;19.50;45.40;;;;;;5026597;28;20445;-59
2022/12/13 01:16:17;;;;;;;12.50;11.70;;;19.50;45.40;;;;;;5031915;28;20472;-58
2022/12/13 01:18:45;;;;;;;12.27;11.67;;;19.50;45.40;;;;;;5031689;28;20820;-58
2022/12/13 01:21:14;;;;;;;11.80;11.20;;;19.50;45.40;;;;;;5032002;28;20824;-59
2022/12/13 01:23:42;;;;;;;12.67;12.00;;;19.50;45.40;;;;;;5015279;28;20450;-57
2022/12/13 01:26:11;;;;;;;12.33;11.63;;;19.40;45.40;;;;;;5012444;28;20462;-58
2022/12/13 01:28:37;;;;;;;11.40;10.80;;;19.50;45.50;;;;;;5012170;28;20452;-58
2022/12/13 01:31:07;;;;;;;11.57;10.87;;;19.40;45.40;;;;;;5011959;28;20450;-57
2022/12/13 01:33:34;;;;;;;12.73;11.97;;;19.40;45.40;;;;;;5026901;28;20451;-57
2022/12/13 01:36:03;;;;;;;11.97;11.37;;;19.40;45.40;;;;;;5031784;28;20895;-59
2022/12/13 01:38:30;;;;;;;11.80;11.20;;;19.40;45.50;;;;;;5031615;28;20476;-57
2022/12/13 01:40:57;;;;;;;12.63;11.93;;;19.40;45.50;;;;;;5031638;28;20534;-57
2022/12/13 01:43:25;;;;;;;12.40;11.73;;;19.40;45.50;;;;;;5017860;28;20446;-57
2022/12/13 01:45:52;;;;;;;12.00;11.30;;;19.40;45.50;;;;;;5011936;28;20529;-57
2022/12/13 01:48:24;;;;;;;12.83;12.13;;;19.40;45.50;;;;;;5012525;28;20452;-57
2022/12/13 01:50:55;;;;;;;12.63;11.93;;;19.30;45.40;;;;;;5011816;28;20473;-58
2022/12/13 01:53:29;;;;;;;12.40;11.60;;;19.30;45.50;;;;;;5024821;28;20453;-57
2022/12/13 01:56:02;;;;;;;11.97;11.27;;;19.30;45.40;;;;;;5031552;28;20465;-57
2022/12/13 01:58:29;;;;;;;12.00;11.40;;;19.30;45.40;;;;;;5031210;28;20481;-59
2022/12/13 02:00:58;;;;;;;11.53;10.93;;;19.30;45.50;;;;;;5031261;28;20444;-56
2022/12/13 02:03:26;;;;;;;12.00;11.40;;;19.30;45.50;;;;;;5017720;28;20457;-59
2022/12/13 02:05:58;;;;;;;11.83;11.23;;;19.30;45.50;;;;;;5011968;28;20472;-58
2022/12/13 02:08:26;;;;;;;11.83;11.23;;;19.30;45.50;;;;;;5011855;28;20446;-57
2022/12/13 02:10:53;;;;;;;12.03;11.40;;;19.20;45.50;;;;;;5011632;28;20830;-57
2022/12/13 02:13:20;;;;;;;12.87;12.17;;;19.20;45.50;;;;;;5024194;28;20449;-59
2022/12/13 02:15:57;;;;;;;12.83;11.80;;;19.20;45.50;;;;;;5031250;28;20464;-58
2022/12/13 02:18:35;;;;;;;11.80;11.10;;;19.20;45.50;;;;;;5031264;28;20486;-57
2022/12/13 02:21:11;;;;;;;12.23;11.53;;;19.20;45.50;;;;;;5031185;28;20444;-59
2022/12/13 02:24:12;;;;;;;12.07;11.47;;;19.20;45.50;;;;;;5016680;28;20975;-59
2022/12/13 02:26:59;;;;;;;11.43;10.83;;;19.20;45.50;;;;;;5011568;28;20811;-57
2022/12/13 02:30:00;;;;;;;12.13;11.43;;;19.20;45.50;;;;;;5012432;28;20450;-57
2022/12/13 02:32:33;;;;;;;12.83;12.17;;;19.20;45.50;;;;;;5019391;28;20813;-58
2022/12/13 02:35:08;;;;;;;11.60;11.00;;;19.20;45.40;;;;;;5035140;28;20964;-57
2022/12/13 02:37:49;;;;;;;12.23;11.53;;;19.20;45.50;;;;;;5034980;28;20527;-57
2022/12/13 02:40:23;;;;;;;12.37;11.63;;;19.20;45.40;;;;;;5034896;28;20451;-56
2022/12/13 02:42:59;;;;;;;12.50;11.80;;;19.20;45.40;;;;;;5027256;28;20813;-58
2022/12/13 02:45:30;;;;;;;11.20;10.70;;;19.20;45.40;;;;;;5015113;28;20546;-57
2022/12/13 02:48:01;;;;;;;12.30;11.50;;;19.20;45.40;;;;;;5015106;28;20442;-56
2022/12/13 02:50:30;;;;;;;11.27;10.70;;;19.20;45.40;;;;;;5014842;28;20532;-58
2022/12/13 02:52:57;;;;;;;11.80;11.00;;;19.20;45.40;;;;;;5022876;28;20449;-59
2022/12/13 02:55:25;;;;;;;12.03;11.43;;;19.20;45.40;;;;;;5034633;28;20445;-57
2022/12/13 02:57:52;;;;;;;11.67;10.97;;;19.20;45.40;;;;;;5034592;28;20488;-57
2022/12/13 03:00:21;;;;;;;11.33;10.70;;;19.10;45.30;;;;;;5034091;28;20445;-58
2022/12/13 03:03:10;;;;;;;11.57;10.87;;;19.20;45.30;;;;;;5014736;28;20532;-57
2022/12/13 03:08:41;;;;;;;12.40;11.77;;;19.20;45.30;;;;;;5014919;28;20556;-58
2022/12/13 03:11:11;;;;;;;12.17;11.57;;;19.10;45.30;;;;;;5014679;28;20498;-58
2022/12/13 03:13:48;;;;;;;11.83;11.13;;;19.10;45.80;;;;;;5014721;28;20446;-56
2022/12/13 03:16:24;;;;;;;11.20;10.63;;;19.10;45.30;;;;;;5014562;28;20469;-57
2022/12/13 03:18:57;;;;;;;11.90;11.20;;;19.10;45.30;;;;;;5014554;28;20482;-56
2022/12/13 03:21:24;;;;;;;11.50;10.90;;;19.10;45.30;;;;;;5015542;28;20442;-57
2022/12/13 03:23:51;;;;;;;12.10;11.30;;;19.10;45.40;;;;;;5014419;28;20544;-57
2022/12/13 03:26:21;;;;;;;11.70;11.10;;;19.10;45.40;;;;;;5014424;28;20466;-58
2022/12/13 03:28:49;;;;;;;11.63;11.03;;;19.10;45.40;;;;;;5014321;28;20472;-58
2022/12/13 03:31:16;;;;;;;11.70;11.00;;;19.10;45.40;;;;;;5021457;28;20447;-56
2022/12/13 03:33:43;;;;;;;11.23;10.63;;;19.10;45.40;;;;;;5034007;28;20455;-58
2022/12/13 03:36:12;;;;;;;12.40;11.70;;;19.10;45.40;;;;;;5034069;28;20460;-59
2022/12/13 03:38:40;;;;;;;11.80;11.10;;;19.00;45.30;;;;;;5033963;28;20543;-59
2022/12/13 03:41:09;;;;;;;11.30;10.70;;;19.10;45.40;;;;;;5027861;28;20896;-60
2022/12/13 03:43:36;;;;;;;11.50;10.90;;;19.00;45.30;;;;;;5013952;28;20442;-56
2022/12/13 03:46:03;;;;;;;12.17;11.47;;;19.00;45.30;;;;;;5025806;28;20546;-59
2022/12/13 03:48:30;;;;;;;11.47;10.77;;;19.10;45.30;;;;;;5035648;28;20466;-59
2022/12/13 03:50:57;;;;;;;11.40;10.80;;;19.10;45.40;;;;;;5035859;28;20506;-59
2022/12/13 03:53:26;;;;;;;11.13;10.63;;;19.10;45.30;;;;;;5035830;28;20442;-59
2022/12/13 03:55:53;;;;;;;11.23;10.60;;;19.10;45.30;;;;;;5036033;28;20482;-59
2022/12/13 03:58:19;;;;;;;11.90;11.20;;;19.10;45.30;;;;;;5028526;28;20672;-55
2022/12/13 04:00:46;;;;;;;11.03;10.47;;;19.10;45.30;;;;;;5015604;28;20449;-55
2022/12/13 04:03:13;;;;;;;12.77;12.07;;;19.00;45.20;;;;;;5033613;28;20443;-55
2022/12/13 04:05:40;;;;;;;12.10;11.47;;;19.00;45.30;;;;;;5033243;28;20472;-56
2022/12/13 04:08:07;;;;;;;12.10;11.40;;;19.00;45.30;;;;;;5033343;28;20441;-56
2022/12/13 04:10:35;;;;;;;11.10;10.53;;;19.00;45.20;;;;;;5018724;28;20446;-54
2022/12/13 04:15:48;;;;;;;12.27;11.47;;;19.00;45.20;;;;;;5013833;28;20525;-58
2022/12/13 04:18:16;;;;;;;11.17;10.37;;;19.00;45.20;;;;;;5013833;28;20481;-58
2022/12/13 04:20:43;;;;;;;11.67;10.97;;;19.00;45.20;;;;;;5023939;28;20453;-57
2022/12/13 04:23:09;;;;;;;13.07;12.37;;;19.00;45.30;;;;;;5033571;28;20455;-56
2022/12/13 04:25:38;;;;;;;11.43;10.83;;;19.00;45.80;;;;;;5033478;28;20471;-57
2022/12/13 04:28:05;;;;;;;10.93;10.43;;;19.00;45.20;;;;;;5033122;28;20979;-57
2022/12/13 04:30:32;;;;;;;11.70;11.20;;;19.00;45.20;;;;;;5019217;28;20456;-56
2022/12/13 04:32:59;;;;;;;11.13;10.43;;;19.00;45.20;;;;;;5013536;28;20446;-57
2022/12/13 04:35:26;;;;;;;11.40;10.80;;;19.00;45.20;;;;;;5017370;28;20449;-56
2022/12/13 04:37:53;;;;;;;11.10;10.50;;;19.00;45.20;;;;;;5032996;28;20844;-58
2022/12/13 04:40:20;;;;;;;12.67;11.87;;;19.00;45.10;;;;;;5021199;28;20961;-57
2022/12/13 04:42:48;;;;;;;11.70;11.20;;;19.00;45.10;;;;;;5013133;28;20984;-57
2022/12/13 04:45:16;;;;;;;12.67;11.90;;;19.00;45.00;;;;;;5013029;28;20457;-57
2022/12/13 04:47:44;;;;;;;12.13;11.43;;;19.00;45.00;;;;;;5013327;28;20442;-55
2022/12/13 04:50:10;;;;;;;12.43;11.73;;;19.00;44.90;;;;;;5022479;28;20445;-57
2022/12/13 04:52:38;;;;;;;12.50;11.80;;;19.00;44.90;;;;;;5033000;28;20441;-57
2022/12/13 04:55:06;;;;;;;12.87;12.20;;;19.00;44.90;;;;;;5032242;28;20540;-57
2022/12/13 04:57:33;;;;;;;12.13;11.57;;;19.00;44.80;;;;;;5032935;28;20485;-56
2022/12/13 05:00:01;;;;;;;11.90;11.13;;;19.00;44.80;;;;;;5024644;28;20452;-55
2022/12/13 05:02:28;;;;;;;11.17;10.60;;;19.00;44.80;;;;;;5012748;28;20471;-56
2022/12/13 05:04:54;;;;;;;11.63;10.93;;;19.00;44.80;;;;;;5012971;28;20448;-56
2022/12/13 05:07:22;;;;;;;11.80;11.10;;;19.00;44.80;;;;;;5012869;28;20465;-57
2022/12/13 05:09:48;;;;;;;11.73;11.13;;;19.00;44.80;;;;;;5018468;28;20451;-56
2022/12/13 05:12:15;;;;;;;11.70;11.07;;;19.00;45.20;;;;;;5032523;28;20443;-58
2022/12/13 05:14:42;;;;;;;12.40;11.67;;;19.00;44.70;;;;;;5032604;28;20453;-59
2022/12/13 05:17:10;;;;;;;12.40;11.70;;;19.00;44.70;;;;;;5032275;28;20490;-56
2022/12/13 05:19:37;;;;;;;12.70;11.93;;;19.00;44.60;;;;;;5013836;28;20450;-56
2022/12/13 05:22:04;;;;;;;11.93;11.23;;;19.00;44.60;;;;;;5012390;28;20484;-56
2022/12/13 05:24:31;;;;;;;11.37;10.77;;;19.00;44.60;;;;;;5012522;28;20541;-57
2022/12/13 05:26:58;;;;;;;11.83;11.23;;;19.00;44.60;;;;;;5012415;28;20485;-59
2022/12/13 05:29:26;;;;;;;11.63;11.07;;;19.00;44.60;;;;;;5015998;28;20442;-57
2022/12/13 05:31:53;;;;;;;11.30;10.70;;;19.00;44.60;;;;;;5032077;28;20453;-56
2022/12/13 05:34:21;;;;;;;11.17;10.60;;;19.00;44.50;;;;;;5032127;28;20536;-57
2022/12/13 05:36:48;;;;;;;11.50;10.90;;;19.00;44.50;;;;;;5031940;28;20467;-56
2022/12/13 05:39:15;;;;;;;12.23;11.63;;;19.00;44.50;;;;;;5017083;28;20477;-58
2022/12/13 05:41:42;;;;;;;12.10;11.50;;;18.90;44.40;;;;;;5012173;28;20446;-57
2022/12/13 05:44:12;;;;;;;11.40;10.90;;;18.90;44.40;;;;;;5012348;28;20893;-57
2022/12/13 05:46:39;;;;;;;11.70;11.10;;;18.90;44.30;;;;;;5012123;28;20480;-57
2022/12/13 05:49:05;;;;;;;11.50;11.00;;;18.90;44.30;;;;;;5024737;28;20437;-58
2022/12/13 05:51:34;;;;;;;12.20;11.50;;;18.90;44.30;;;;;;5031641;28;20458;-54
2022/12/13 05:54:00;;;;;;;11.23;10.60;;;18.90;44.30;;;;;;5032009;28;20959;-57
2022/12/13 05:56:27;;;;;;;12.00;11.40;;;18.90;44.90;;;;;;5031682;28;20471;-59
2022/12/13 05:58:54;;;;;;;11.77;11.07;;;18.90;44.40;;;;;;5020190;28;20511;-57
2022/12/13 06:01:21;;;;;;;12.10;11.40;;;18.90;44.30;;;;;;5011898;28;20452;-56
2022/12/13 06:03:48;;;;;;;12.83;11.80;;;19.00;44.30;;;;;;5011997;28;20454;-56
2022/12/13 06:06:16;;;;;;;12.63;11.93;;;19.00;44.90;;;;;;5013572;28;20457;-57
2022/12/13 06:08:45;;;;;;;14.53;13.33;;;19.10;46.20;;;;;;5025394;28;20802;-58
2022/12/13 06:11:12;;;;;;;15.13;14.00;;;19.10;47.70;;;;;;5035883;28;20544;-59
2022/12/13 06:13:40;;;;;;;13.77;12.67;;;19.10;48.00;;;;;;5035836;28;20551;-58
2022/12/13 06:16:08;;;;;;;14.23;12.90;;;19.10;47.80;;;;;;5028200;28;20469;-56
2022/12/13 06:18:35;;;;;;;12.57;11.70;;;19.00;48.60;;;;;;5015150;28;20508;-54
2022/12/13 06:21:05;;;;;;;15.37;13.83;;;19.10;49.30;;;;;;5016714;28;20815;-55
2022/12/13 06:23:34;;;;;;;14.90;13.40;;;19.10;49.10;;;;;;5016605;28;20829;-57
2022/12/13 06:26:04;;;;;;;15.20;14.17;;;19.10;48.80;;;;;;5016760;28;20532;-57
2022/12/13 06:28:31;;;;;;;14.03;12.87;;;19.10;48.60;;;;;;5016311;28;20517;-57
2022/12/13 06:30:59;;;;;;;14.40;13.30;;;19.20;48.40;;;;;;5015964;28;20453;-53
2022/12/13 06:33:27;;;;;;;20.60;13.10;;;19.20;48.10;;;;;;5016550;28;20441;-57
2022/12/13 06:35:56;;;;;;;12.17;11.27;;;19.20;47.80;;;;;;5016463;28;20477;-53
2022/12/13 06:38:24;;;;;;;12.30;11.47;;;19.20;47.50;;;;;;5016108;28;20477;-54
2022/12/13 06:40:50;;;;;;;14.50;12.83;;;19.20;47.30;;;;;;5015829;28;20446;-57
2022/12/13 06:43:19;;;;;;;14.57;13.30;;;19.10;47.00;;;;;;5016198;28;20449;-54
2022/12/13 06:45:46;;;;;;;13.20;12.10;;;19.20;46.90;;;;;;5015979;28;20866;-56
2022/12/13 06:48:14;;;;;;;12.60;11.43;;;19.10;46.70;;;;;;5015999;28;20871;-53
2022/12/13 06:50:41;;;;;;;11.57;10.97;;;19.10;46.50;;;;;;5015735;28;20544;-56
2022/12/13 06:53:07;;;;;;;14.87;13.60;;;19.10;46.40;;;;;;5015429;28;20476;-57
2022/12/13 06:55:35;;;;;;;12.43;11.67;;;19.10;46.30;;;;;;5015713;28;20470;-53
2022/12/13 06:58:02;;;;;;;12.50;11.50;;;19.10;46.80;;;;;;5015580;28;20477;-56
2022/12/13 07:00:31;;;;;;;13.20;12.30;;;19.10;46.10;;;;;;5015680;28;20449;-54
2022/12/13 07:02:58;;;;;;;13.17;12.20;;;19.10;46.00;;;;;;5015875;28;20453;-55
2022/12/13 07:05:26;;;;;;;13.47;12.47;;;19.00;45.80;;;;;;5015961;28;20442;-54
2022/12/13 07:07:53;;;;;;;13.47;12.40;;;19.00;45.70;;;;;;5015513;28;20512;-54
2022/12/13 07:10:20;;;;;;;13.23;12.23;;;19.00;46.20;;;;;;5015221;28;20945;-53
2022/12/13 07:12:47;;;;;;;12.00;11.30;;;19.00;45.60;;;;;;5015553;28;20446;-54
2022/12/13 07:15:14;;;;;;;12.30;11.40;;;19.00;45.50;;;;;;5015818;28;20445;-57
2022/12/13 07:17:42;;;;;;;13.00;12.20;;;19.00;45.50;;;;;;5015637;28;20464;-57
2022/12/13 07:20:12;;;;;;;12.57;11.67;;;19.00;45.50;;;;;;5015543;28;20934;-57
2022/12/13 07:22:39;;;;;;;12.13;11.20;;;19.00;45.40;;;;;;5015543;28;20507;-58
2022/12/13 07:25:06;;;;;;;12.47;11.57;;;19.00;45.40;;;;;;5015656;28;20446;-53
2022/12/13 07:27:33;;;;;;;12.90;11.83;;;19.00;45.30;;;;;;5015628;28;20469;-53
2022/12/13 07:30:00;;;;;;;12.77;12.07;;;19.10;45.30;;;;;;5015348;28;20438;-57
2022/12/13 07:32:27;;;;;;;12.17;11.50;;;19.10;45.30;;;;;;5016292;28;20442;-56
2022/12/13 07:34:55;;;;;;;12.30;11.60;;;19.10;45.20;;;;;;5015504;28;20446;-57
2022/12/13 07:37:22;;;;;;;12.70;11.70;;;19.20;45.20;;;;;;5015991;28;21019;-57
2022/12/13 07:39:49;;;;;;;13.07;12.37;;;19.20;45.10;;;;;;5018111;28;20481;-53
2022/12/13 07:42:16;;;;;;;13.07;12.13;;;19.20;45.00;;;;;;5017747;28;20540;-55
2022/12/13 07:44:42;;;;;;;12.47;11.50;;;19.20;45.00;;;;;;5016231;28;20457;-54
2022/12/13 07:47:09;;;;;;;12.00;11.50;;;19.20;44.90;;;;;;5015735;28;20469;-54
2022/12/13 07:49:37;;;;;;;13.33;12.57;;;19.20;44.80;;;;;;5013806;28;20444;-54
2022/12/13 07:52:05;;;;;;;11.90;11.20;;;19.20;44.70;;;;;;5013952;28;20558;-55
2022/12/13 07:54:33;;;;;;;11.10;10.50;;;19.20;44.70;;;;;;5014032;28;20450;-55
2022/12/13 07:56:59;;;;;;;11.87;11.07;;;19.20;44.60;;;;;;5013735;28;20807;-57
2022/12/13 07:59:26;;;;;;;12.13;10.97;;;19.20;44.50;;;;;;5013493;28;20488;-57
2022/12/13 08:01:53;;;;;;;11.37;10.83;;;19.20;44.40;;;;;;5013778;28;20446;-56
2022/12/13 08:04:20;;;;;;;11.67;10.77;;;19.20;44.40;;;;;;5013624;28;20468;-54
2022/12/13 08:06:47;;;;;;;11.50;10.90;;;19.20;44.40;;;;;;5013599;28;20465;-54
2022/12/13 08:09:15;;;;;;;10.63;10.03;;;19.20;44.30;;;;;;5013724;28;20437;-53
2022/12/13 08:11:42;;;;;;;11.60;10.70;;;19.20;44.20;;;;;;5013498;28;20464;-54
2022/12/13 08:14:08;;;;;;;11.17;10.57;;;19.20;44.20;;;;;;5013510;28;20446;-54
2022/12/13 08:16:35;;;;;;;10.93;10.33;;;19.20;44.20;;;;;;5013477;28;20472;-53
2022/12/13 08:19:02;;;;;;;12.33;10.90;;;19.20;44.10;;;;;;5013252;28;21015;-57
2022/12/13 08:21:29;;;;;;;11.00;10.40;;;19.10;44.10;;;;;;5013342;28;20456;-53
2022/12/13 08:23:56;;;;;;;12.33;11.37;;;19.10;44.10;;;;;;5013245;28;20533;-57
2022/12/13 08:26:24;;;;;;;12.10;11.17;;;19.10;44.10;;;;;;5013203;28;20470;-55
2022/12/13 08:28:51;;;;;;;11.53;10.90;;;19.10;44.10;;;;;;5012243;28;20813;-55
2022/12/13 08:31:18;;;;;;;11.73;11.07;;;19.10;44.10;;;;;;5013164;28;20442;-54
2022/12/13 08:33:46;;;;;;;12.17;11.60;;;19.00;44.00;;;;;;5013120;28;20449;-53
2022/12/13 08:36:16;;;;;;;11.47;10.90;;;19.00;44.00;;;;;;5013076;28;20480;-53
2022/12/13 08:38:43;;;;;;;12.00;11.30;;;19.00;44.00;;;;;;5013052;28;20513;-54
2022/12/13 08:41:11;;;;;;;12.20;11.60;;;19.00;44.00;;;;;;5012786;28;20446;-56
2022/12/13 08:43:39;;;;;;;11.80;11.10;;;18.90;43.90;;;;;;5012923;28;20856;-55
2022/12/13 08:46:06;;;;;;;11.47;10.87;;;18.90;43.90;;;;;;5012884;28;20482;-53
2022/12/13 08:48:34;;;;;;;11.10;10.30;;;18.90;43.90;;;;;;5013056;28;20482;-54
2022/12/13 08:51:02;;;;;;;11.50;10.80;;;18.90;43.90;;;;;;5012684;28;20842;-54
2022/12/13 08:53:29;;;;;;;11.10;10.50;;;18.90;43.90;;;;;;5012733;28;20520;-53
2022/12/13 08:56:01;;;;;;;11.83;11.07;;;19.00;44.00;;;;;;5012670;28;20502;-57
2022/12/13 08:58:28;;;;;;;11.13;10.63;;;19.00;44.00;;;;;;5012615;28;20452;-58
2022/12/13 09:00:56;;;;;;;10.23;9.83;;;19.00;44.00;;;;;;5012465;28;20448;-57
2022/12/13 09:03:23;;;;;;;10.37;9.87;;;19.00;44.00;;;;;;5012689;28;20449;-57
2022/12/13 09:05:50;;;;;;;10.97;10.40;;;19.10;44.10;;;;;;5012528;28;20881;-56
2022/12/13 09:08:17;;;;;;;10.47;9.97;;;19.20;44.10;;;;;;5012431;28;20466;-55
2022/12/13 09:10:45;;;;;;;11.07;10.53;;;19.20;44.00;;;;;;5012412;28;20442;-53
2022/12/13 09:13:12;;;;;;;11.60;10.97;;;19.20;44.00;;;;;;5012451;28;20441;-54
2022/12/13 09:15:40;;;;;;;11.40;10.80;;;19.20;43.90;;;;;;5012378;28;20895;-55
2022/12/13 09:18:08;;;;;;;12.00;11.50;;;19.30;43.90;;;;;;5012486;28;20445;-57
2022/12/13 09:20:36;;;;;;;10.93;10.30;;;19.30;43.90;;;;;;5011954;28;20482;-53
2022/12/13 09:23:04;;;;;;;11.03;10.53;;;19.30;43.80;;;;;;5012246;28;20481;-53
2022/12/13 09:25:32;;;;;;;10.90;10.30;;;19.30;43.70;;;;;;5012113;28;20441;-56
2022/12/13 09:28:00;;;;;;;11.47;10.77;;;19.30;43.70;;;;;;5012196;28;20449;-53
2022/12/13 09:30:27;;;;;;;10.93;10.43;;;19.30;43.70;;;;;;5011920;28;20810;-54
2022/12/13 09:32:55;;;;;;;10.93;10.43;;;19.30;43.70;;;;;;5012126;28;20446;-53
2022/12/13 09:35:23;;;;;;;10.83;10.33;;;19.30;43.70;;;;;;5011929;28;20533;-54
2022/12/13 09:37:50;;;;;;;10.43;10.03;;;19.30;43.60;;;;;;5012313;28;20438;-55
2022/12/13 09:40:22;;;;;;;10.40;10.00;;;19.30;44.10;;;;;;5011508;28;20485;-54
2022/12/13 09:42:52;;;;;;;11.27;10.40;;;19.30;43.50;;;;;;5012121;28;20454;-54
2022/12/13 09:45:19;;;;;;;10.83;10.23;;;19.30;43.50;;;;;;5011876;28;20884;-55
2022/12/13 09:47:48;;;;;;;12.70;12.10;;;19.30;43.50;;;;;;5012198;28;20528;-54
2022/12/13 09:50:20;;;;;;;11.23;10.73;;;19.30;43.50;;;;;;5011637;28;20445;-57
2022/12/13 09:52:48;;;;;;;10.90;10.40;;;19.30;43.40;;;;;;5011928;28;20442;-55
2022/12/13 09:55:21;;;;;;;11.27;10.77;;;19.30;43.40;;;;;;5011747;28;20544;-58
2022/12/13 09:57:49;;;;;;;11.13;10.57;;;19.30;43.40;;;;;;5011882;28;20452;-56
2022/12/13 10:00:18;;;;;;;10.80;10.30;;;19.30;43.40;;;;;;5011469;28;20484;-57
2022/12/13 10:02:47;;;;;;;10.90;10.50;;;19.30;43.40;;;;;;5011823;28;20541;-57
2022/12/13 10:05:27;;;;;;;11.30;10.80;;;19.30;43.30;;;;;;5011625;28;20952;-58
2022/12/13 10:07:59;;;;;;;10.47;10.07;;;19.30;43.30;;;;;;5011754;28;20448;-56
2022/12/13 10:10:27;;;;;;;10.90;10.40;;;19.20;43.20;;;;;;5011475;28;20525;-54
2022/12/13 10:12:58;;;;;;;10.73;10.33;;;19.20;43.20;;;;;;5011895;28;20465;-55
2022/12/13 10:15:26;;;;;;;11.27;10.67;;;19.20;43.20;;;;;;5011705;28;20450;-55
2022/12/13 10:17:53;;;;;;;11.47;10.97;;;19.10;43.20;;;;;;5011693;28;20454;-57
2022/12/13 10:20:23;;;;;;;11.37;10.90;;;19.10;43.20;;;;;;5011365;28;20504;-56
2022/12/13 10:22:49;;;;;;;11.10;10.60;;;19.10;43.20;;;;;;5011473;28;20454;-54
2022/12/13 10:25:48;;;;;;;12.50;11.83;;;19.10;43.20;;;;;;5011502;28;20827;-54
2022/12/13 10:28:17;;;;;;;10.50;10.00;;;19.00;43.20;;;;;;5011553;28;21017;-56
2022/12/13 10:30:45;;;;;;;12.00;11.40;;;19.00;43.20;;;;;;5011201;28;20508;-54
2022/12/13 10:33:23;;;;;;;11.90;10.90;;;19.00;43.20;;;;;;5011491;28;20955;-56
2022/12/13 10:36:07;;;;;;;11.20;10.70;;;19.00;43.20;;;;;;5011425;28;20541;-57
2022/12/13 10:38:37;;;;;;;10.83;10.33;;;19.00;43.30;;;;;;5011659;28;20532;-54
2022/12/13 10:41:26;;;;;;;11.00;10.60;;;19.00;43.30;;;;;;5011644;28;20846;-53
2022/12/13 10:44:23;;;;;;;10.87;10.37;;;19.00;43.40;;;;;;5011423;28;20437;-54
2022/12/13 10:47:05;;;;;;;11.03;10.37;;;19.10;43.40;;;;;;5009845;28;20502;-53
2022/12/13 10:49:40;;;;;;;10.40;10.00;;;19.10;43.40;;;;;;5011353;28;20437;-56
2022/12/13 10:52:21;;;;;;;10.80;10.30;;;19.20;43.50;;;;;;5012530;28;20817;-51
2022/12/13 10:54:50;;;;;;;10.70;10.20;;;19.20;43.50;;;;;;5015118;28;20441;-54
2022/12/13 10:57:19;;;;;;;10.60;10.10;;;19.30;43.50;;;;;;5014997;28;20474;-57
2022/12/13 10:59:48;;;;;;;10.10;9.60;;;19.30;43.50;;;;;;5014652;28;20487;-53
2022/12/13 11:02:34;;;;;;;11.13;10.60;;;19.30;43.40;;;;;;5014987;28;20529;-53
2022/12/13 11:05:22;;;;;;;10.63;10.13;;;19.40;43.40;;;;;;5014957;28;20621;-51
2022/12/13 11:07:49;;;;;;;10.57;10.07;;;19.40;43.40;;;;;;5014998;28;20461;-54
2022/12/13 11:10:22;;;;;;;10.10;9.63;;;19.40;43.30;;;;;;5014679;28;20444;-52
2022/12/13 11:12:51;;;;;;;10.23;9.83;;;19.40;43.20;;;;;;5014976;28;20556;-52
2022/12/13 11:15:22;;;;;;;10.40;10.00;;;19.40;43.20;;;;;;5014490;28;20941;-52
2022/12/13 11:17:52;;;;;;;10.80;10.40;;;19.50;43.20;;;;;;5014601;28;20947;-54
2022/12/13 11:20:22;;;;;;;10.43;10.03;;;19.50;43.10;;;;;;5014223;28;20485;-54
2022/12/13 11:22:50;;;;;;;10.30;9.80;;;19.50;43.10;;;;;;5014414;28;20442;-53
2022/12/13 11:25:21;;;;;;;10.60;10.10;;;19.50;43.10;;;;;;5014856;28;20550;-55
2022/12/13 11:28:02;;;;;;;9.83;9.43;;;19.50;43.00;;;;;;5014582;28;20560;-56
2022/12/13 11:30:37;;;;;;;9.20;8.87;;;19.50;43.00;;;;;;5014316;28;20533;-55
2022/12/13 11:33:18;;;;;;;10.07;9.67;;;19.50;43.00;;;;;;5014376;28;20449;-57
2022/12/13 11:36:00;;;;;;;11.40;10.90;;;19.50;43.00;;;;;;5014217;28;20480;-57
2022/12/13 11:38:32;;;;;;;10.33;9.73;;;19.50;43.00;;;;;;5014416;28;20536;-55
2022/12/13 11:41:06;;;;;;;9.90;9.43;;;19.50;43.00;;;;;;5013982;28;20576;-53
2022/12/13 11:43:39;;;;;;;9.70;9.33;;;19.50;43.00;;;;;;5014181;28;20957;-56
2022/12/13 11:46:14;;;;;;;10.30;9.90;;;19.40;42.90;;;;;;5014209;28;20846;-54
2022/12/13 11:48:46;;;;;;;9.10;8.80;;;19.40;42.90;;;;;;5014236;28;20450;-56
2022/12/13 11:51:19;;;;;;;10.43;9.97;;;19.40;42.90;;;;;;5013972;28;20988;-56
2022/12/13 11:53:55;;;;;;;10.50;10.00;;;19.50;43.00;;;;;;5014218;28;20529;-52
2022/12/13 11:56:25;;;;;;;9.53;9.20;;;19.40;42.90;;;;;;5013964;28;20527;-55
2022/12/13 11:59:01;;;;;;;9.80;9.37;;;19.40;42.90;;;;;;5013840;28;20504;-59
2022/12/13 12:01:34;;;;;;;9.43;9.13;;;19.40;42.90;;;;;;5013889;28;20749;-54
2022/12/13 12:04:10;;;;;;;10.27;9.77;;;19.40;42.80;;;;;;5013675;28;20446;-55
2022/12/13 12:06:43;;;;;;;10.20;9.73;;;19.40;42.90;;;;;;5013658;28;20561;-55
2022/12/13 12:09:14;;;;;;;10.63;10.13;;;19.40;42.90;;;;;;5013529;28;20532;-57
2022/12/13 12:11:47;;;;;;;9.57;9.17;;;19.40;42.80;;;;;;5013629;28;20457;-55
2022/12/13 12:14:22;;;;;;;8.90;8.50;;;19.30;42.80;;;;;;5013619;28;20522;-57
2022/12/13 12:16:52;;;;;;;9.40;9.10;;;19.40;42.80;;;;;;5013582;28;20556;-55
2022/12/13 12:19:22;;;;;;;10.40;9.90;;;19.30;42.80;;;;;;5013567;28;20452;-58
2022/12/13 12:22:03;;;;;;;9.33;9.00;;;19.30;42.80;;;;;;5013483;28;20445;-57
2022/12/13 12:24:43;;;;;;;9.90;9.50;;;19.30;42.80;;;;;;5013307;28;20533;-53
2022/12/13 12:27:23;;;;;;;10.03;9.40;;;19.30;42.80;;;;;;5013281;28;20470;-54
2022/12/13 12:30:07;;;;;;;9.87;9.33;;;19.30;42.70;;;;;;5013091;28;20446;-58
2022/12/13 12:32:41;;;;;;;10.23;9.73;;;19.30;42.80;;;;;;5013215;28;20449;-54
2022/12/13 12:35:34;;;;;;;10.03;9.57;;;19.30;42.70;;;;;;5013176;28;20530;-53
2022/12/13 12:38:12;;;;;;;10.73;10.23;;;19.30;42.70;;;;;;5013577;28;20872;-59
2022/12/13 12:41:00;;;;;;;9.80;9.40;;;19.30;42.80;;;;;;5012916;28;20488;-55
2022/12/13 12:43:31;;;;;;;10.13;9.73;;;19.20;43.20;;;;;;5013080;28;20445;-54
2022/12/13 12:46:11;;;;;;;10.10;9.60;;;19.20;42.80;;;;;;5012773;28;21005;-54